Time;durP1;ratioP1;P1;durP2;ratioP2;P2;SDS_P1;SDS_P2;PMS_P1;PMS_P2;Temp;Humidity;BMP_temperature;BMP_pressure;BME280_temperature;BME280_humidity;BME280_pressure;Samples;Min_cycle;Max_cycle;Signal;HPM_P1;HPM_P2
2023/01/11 00:01:19;;;;;;;2.33;1.10;;;;;;;;;;5094443;28;20036;-87
2023/01/11 00:03:44;;;;;;;1.67;1.00;;;;;;;;;;5094003;28;20024;-87
2023/01/11 00:06:10;;;;;;;1.85;0.90;;;;;;;;;;5075147;28;20089;-86
2023/01/11 00:08:36;;;;;;;2.40;1.10;;;;;;;;;;5075423;28;20035;-86
2023/01/11 00:11:02;;;;;;;2.88;1.30;;;;;;;;;;5095957;28;20446;-86
2023/01/11 00:13:29;;;;;;;1.40;0.93;;;;;;;;;;5088288;28;20044;-86
2023/01/11 00:15:54;;;;;;;3.80;1.30;;;;;;;;;;5077484;28;20633;-86
2023/01/11 00:18:20;;;;;;;2.38;1.10;;;;;;;;;;5078268;28;20052;-87
2023/01/11 00:20:45;;;;;;;3.67;1.23;;;;;;;;;;5096567;28;20039;-86
2023/01/11 00:23:11;;;;;;;2.47;1.10;;;;;;;;;;5078107;28;20068;-86
2023/01/11 00:25:37;;;;;;;2.85;1.00;;;;;;;;;;5077834;28;20134;-86
2023/01/11 00:28:03;;;;;;;2.25;1.00;;;;;;;;;;5097156;28;20028;-87
2023/01/11 00:30:29;;;;;;;1.70;1.00;;;;;;;;;;5096716;28;20059;-86
2023/01/11 00:32:58;;;;;;;2.85;1.20;;;;;;;;;;5098835;28;20023;-87
2023/01/11 00:35:25;;;;;;;1.45;0.80;;;;;;;;;;5067329;28;20058;-86
2023/01/11 00:37:52;;;;;;;2.88;1.00;;;;;;;;;;5099907;28;20481;-88
2023/01/11 00:40:18;;;;;;;2.10;1.02;;;;;;;;;;5104994;28;20042;-86
2023/01/11 00:48:32;;;;;;;;;;;;;;;;;;5107532;22;20060;-80
2023/01/11 00:50:58;;;;;;;4.80;1.10;;;;;;;;;;5096713;28;19922;-82
2023/01/11 00:53:23;;;;;;;3.30;1.00;;;;;;;;;;5114798;28;20036;-82
2023/01/11 00:55:49;;;;;;;2.28;0.93;;;;;;;;;;5114679;28;20027;-82
2023/01/11 00:58:15;;;;;;;2.63;1.00;;;;;;;;;;5114903;28;20035;-82
2023/01/11 01:00:40;;;;;;;2.75;1.10;;;;;;;;;;5114845;28;20118;-83
2023/01/11 01:03:07;;;;;;;4.68;1.15;;;;;;;;;;5114129;28;20071;-82
2023/01/11 01:05:32;;;;;;;2.97;1.20;;;;;;;;;;5114498;28;20036;-82
2023/01/11 01:07:58;;;;;;;4.53;1.40;;;;;;;;;;5096481;28;20057;-82
2023/01/11 01:10:23;;;;;;;2.50;1.08;;;;;;;;;;5114999;28;20031;-82
2023/01/11 01:15:33;;;;;;;2.05;0.93;;;;;;;;;;5100151;28;20042;-83
2023/01/11 01:17:59;;;;;;;2.55;0.93;;;;;;;;;;5118789;28;20040;-82
2023/01/11 01:20:25;;;;;;;1.98;1.05;;;;;;;;;;5100908;28;20028;-82
2023/01/11 01:22:51;;;;;;;1.48;0.80;;;;;;;;;;5100720;28;20494;-82
2023/01/11 01:25:17;;;;;;;2.25;0.90;;;;;;;;;;5099816;28;20488;-83
2023/01/11 01:27:42;;;;;;;2.47;1.00;;;;;;;;;;5118549;28;20080;-83
2023/01/11 01:30:08;;;;;;;1.75;0.95;;;;;;;;;;5118926;28;20426;-82
2023/01/11 01:32:34;;;;;;;2.20;1.00;;;;;;;;;;5100375;28;20538;-81
2023/01/11 01:34:59;;;;;;;4.55;1.10;;;;;;;;;;5100240;28;20059;-83
2023/01/11 01:37:25;;;;;;;2.75;1.00;;;;;;;;;;5099770;28;20396;-82
2023/01/11 01:39:50;;;;;;;1.13;0.95;;;;;;;;;;5118444;28;20058;-83
2023/01/11 01:42:18;;;;;;;2.60;1.00;;;;;;;;;;5099675;28;20067;-82
2023/01/11 01:45:01;;;;;;;2.47;1.00;;;;;;;;;;5099910;28;20092;-82
2023/01/11 01:47:47;;;;;;;2.30;1.15;;;;;;;;;;5118140;28;20054;-83
2023/01/11 01:50:30;;;;;;;2.28;1.15;;;;;;;;;;5118675;28;20035;-82
2023/01/11 01:53:03;;;;;;;3.17;1.25;;;;;;;;;;5118365;28;20023;-83
2023/01/11 01:55:35;;;;;;;2.60;0.90;;;;;;;;;;5117960;28;20071;-82
2023/01/11 01:58:05;;;;;;;1.17;0.80;;;;;;;;;;5118151;28;20356;-82
2023/01/11 02:00:32;;;;;;;2.28;1.10;;;;;;;;;;5117956;28;20613;-82
2023/01/11 02:02:59;;;;;;;3.10;1.35;;;;;;;;;;5100044;28;20074;-82
2023/01/11 02:05:25;;;;;;;1.33;0.93;;;;;;;;;;5099370;28;20043;-82
2023/01/11 02:07:53;;;;;;;2.75;1.05;;;;;;;;;;5118157;28;20035;-82
2023/01/11 02:10:20;;;;;;;4.10;1.02;;;;;;;;;;5118172;28;20028;-83
2023/01/11 02:13:07;;;;;;;1.55;1.08;;;;;;;;;;5118226;28;20043;-83
2023/01/11 02:15:35;;;;;;;3.30;1.15;;;;;;;;;;5119435;28;20095;-83
2023/01/11 02:18:00;;;;;;;2.83;1.10;;;;;;;;;;5125125;28;20035;-83
2023/01/11 02:20:45;;;;;;;2.00;1.00;;;;;;;;;;5089478;28;20059;-84
2023/01/11 02:23:29;;;;;;;1.15;0.90;;;;;;;;;;5124964;28;20402;-83
2023/01/11 02:26:23;;;;;;;3.72;0.80;;;;;;;;;;5125521;28;20035;-83
2023/01/11 02:28:58;;;;;;;2.28;1.10;;;;;;;;;;5126417;28;20420;-82
2023/01/11 02:31:32;;;;;;;1.92;1.00;;;;;;;;;;5117732;28;20032;-83
2023/01/11 02:34:25;;;;;;;2.42;0.90;;;;;;;;;;5117498;28;20038;-82
2023/01/11 02:36:53;;;;;;;2.40;1.10;;;;;;;;;;5117445;28;20454;-82
2023/01/11 02:39:42;;;;;;;1.83;1.10;;;;;;;;;;5116817;28;20088;-83
2023/01/11 02:45:21;;;;;;;2.83;0.90;;;;;;;;;;5098121;28;20039;-82
2023/01/11 02:47:49;;;;;;;1.27;0.88;;;;;;;;;;5078140;28;20067;-82
2023/01/11 02:50:41;;;;;;;2.45;0.90;;;;;;;;;;5116456;28;20035;-83
2023/01/11 02:53:15;;;;;;;1.13;0.90;;;;;;;;;;5097966;28;20056;-84
2023/01/11 02:55:47;;;;;;;1.85;0.85;;;;;;;;;;5117104;28;20034;-82
2023/01/11 02:58:15;;;;;;;3.22;0.90;;;;;;;;;;5116268;28;20028;-82
2023/01/11 03:00:42;;;;;;;1.55;1.08;;;;;;;;;;5116437;28;20071;-82
2023/01/11 03:03:29;;;;;;;3.05;0.90;;;;;;;;;;5116444;28;20027;-83
2023/01/11 03:06:06;;;;;;;2.75;0.93;;;;;;;;;;5097499;28;20543;-83
2023/01/11 03:08:32;;;;;;;2.58;1.00;;;;;;;;;;5097853;28;20081;-83
2023/01/11 03:11:05;;;;;;;3.17;0.95;;;;;;;;;;5115988;28;20445;-82
2023/01/11 03:13:36;;;;;;;2.88;1.00;;;;;;;;;;5116190;28;20478;-83
2023/01/11 03:16:13;;;;;;;1.33;0.80;;;;;;;;;;5115856;28;20044;-83
2023/01/11 03:18:52;;;;;;;1.50;0.80;;;;;;;;;;5097322;28;20036;-82
2023/01/11 03:21:29;;;;;;;1.83;0.82;;;;;;;;;;5080620;28;20108;-82
2023/01/11 03:24:19;;;;;;;1.77;1.00;;;;;;;;;;5115868;28;20036;-82
2023/01/11 03:26:54;;;;;;;3.08;0.90;;;;;;;;;;5097347;28;20035;-83
2023/01/11 03:29:29;;;;;;;1.98;0.90;;;;;;;;;;5115093;28;20456;-82
2023/01/11 03:32:08;;;;;;;2.97;0.90;;;;;;;;;;5115199;28;20601;-83
2023/01/11 03:35:06;;;;;;;1.48;0.80;;;;;;;;;;5115019;28;20035;-82
2023/01/11 03:37:34;;;;;;;1.13;0.70;;;;;;;;;;5069888;28;20044;-83
2023/01/11 03:40:12;;;;;;;1.33;0.80;;;;;;;;;;5097220;28;20040;-83
2023/01/11 03:43:27;;;;;;;1.55;0.75;;;;;;;;;;5097350;28;20067;-83
2023/01/11 03:45:31;;;;;;;1.85;0.77;;;;;;;;;;5086333;28;20088;-82
2023/01/11 03:48:00;;;;;;;2.38;0.82;;;;;;;;;;5115023;28;20077;-83
2023/01/11 03:50:28;;;;;;;1.65;0.70;;;;;;;;;;5097148;28;20039;-83
2023/01/11 03:52:56;;;;;;;1.60;0.90;;;;;;;;;;5114795;28;20047;-82
2023/01/11 03:55:25;;;;;;;1.10;0.80;;;;;;;;;;5114635;28;20062;-82
2023/01/11 03:57:53;;;;;;;2.35;0.70;;;;;;;;;;5096479;28;20036;-83
2023/01/11 04:00:19;;;;;;;2.15;1.02;;;;;;;;;;5114976;28;20501;-82
2023/01/11 04:02:45;;;;;;;1.30;0.70;;;;;;;;;;5114781;28;20472;-83
2023/01/11 04:05:11;;;;;;;2.20;0.90;;;;;;;;;;5095912;28;20022;-82
2023/01/11 04:07:36;;;;;;;1.80;0.80;;;;;;;;;;5115256;28;20031;-83
2023/01/11 04:10:03;;;;;;;1.42;1.00;;;;;;;;;;5080007;28;20027;-83
2023/01/11 04:12:28;;;;;;;3.78;0.90;;;;;;;;;;5096404;28;20035;-82
2023/01/11 04:14:53;;;;;;;1.08;0.77;;;;;;;;;;5114703;28;20062;-82
2023/01/11 04:17:19;;;;;;;3.03;1.20;;;;;;;;;;5115186;28;20566;-82
2023/01/11 04:19:44;;;;;;;1.65;0.82;;;;;;;;;;5114588;28;20071;-83
2023/01/11 04:22:10;;;;;;;3.28;1.00;;;;;;;;;;5114855;28;20035;-83
2023/01/11 04:24:35;;;;;;;2.08;0.80;;;;;;;;;;5114357;28;20103;-82
2023/01/11 04:27:01;;;;;;;2.33;0.90;;;;;;;;;;5114716;28;20035;-82
2023/01/11 04:29:26;;;;;;;1.50;1.08;;;;;;;;;;5096098;28;20024;-82
2023/01/11 04:31:52;;;;;;;2.85;1.00;;;;;;;;;;5114839;28;20035;-82
2023/01/11 04:34:17;;;;;;;2.15;0.88;;;;;;;;;;5096012;28;20023;-83
2023/01/11 04:36:43;;;;;;;1.63;1.00;;;;;;;;;;5114737;28;20457;-82
2023/01/11 04:39:09;;;;;;;2.95;0.90;;;;;;;;;;5114054;28;20100;-82
2023/01/11 04:44:23;;;;;;;1.85;0.80;;;;;;;;;;5114467;28;20449;-81
2023/01/11 04:46:48;;;;;;;1.67;0.90;;;;;;;;;;5095761;28;20039;-82
2023/01/11 04:49:14;;;;;;;4.68;0.80;;;;;;;;;;5114301;28;20085;-83
2023/01/11 04:51:39;;;;;;;4.03;1.33;;;;;;;;;;5095980;28;20036;-82
2023/01/11 04:54:06;;;;;;;2.47;1.00;;;;;;;;;;5113615;28;20040;-83
2023/01/11 04:56:32;;;;;;;2.90;1.15;;;;;;;;;;5114346;28;20044;-81
2023/01/11 04:58:57;;;;;;;2.78;1.00;;;;;;;;;;5114075;28;20297;-82
2023/01/11 05:01:23;;;;;;;6.10;0.90;;;;;;;;;;5114324;28;20579;-82
2023/01/11 05:03:50;;;;;;;3.90;1.15;;;;;;;;;;5114523;28;20036;-83
2023/01/11 05:06:17;;;;;;;2.38;1.40;;;;;;;;;;5113581;28;20110;-82
2023/01/11 05:08:46;;;;;;;3.53;1.25;;;;;;;;;;5095722;28;20024;-82
2023/01/11 05:11:12;;;;;;;1.98;1.17;;;;;;;;;;5095658;28;20653;-83
2023/01/11 05:13:40;;;;;;;3.13;1.05;;;;;;;;;;5114415;28;20646;-82
2023/01/11 05:16:18;;;;;;;1.38;1.00;;;;;;;;;;5114343;28;20039;-82
2023/01/11 05:18:46;;;;;;;2.22;1.00;;;;;;;;;;5113852;28;20040;-82
2023/01/11 05:21:13;;;;;;;1.27;0.65;;;;;;;;;;5114035;28;20470;-82
2023/01/11 05:23:39;;;;;;;1.40;0.90;;;;;;;;;;5095657;28;20047;-82
2023/01/11 05:26:10;;;;;;;1.00;0.77;;;;;;;;;;5114175;28;20046;-82
2023/01/11 05:28:36;;;;;;;2.53;0.90;;;;;;;;;;5095966;28;20031;-82
2023/01/11 05:31:02;;;;;;;3.08;0.80;;;;;;;;;;5079028;28;20026;-82
2023/01/11 05:33:28;;;;;;;1.42;0.80;;;;;;;;;;5113671;28;20031;-83
2023/01/11 05:36:01;;;;;;;2.00;0.90;;;;;;;;;;5095272;28;20035;-82
2023/01/11 05:38:28;;;;;;;2.17;1.10;;;;;;;;;;5113995;28;20035;-82
2023/01/11 05:40:54;;;;;;;2.05;0.90;;;;;;;;;;5113313;28;20487;-82
2023/01/11 05:43:20;;;;;;;2.90;1.13;;;;;;;;;;5079007;28;20566;-82
2023/01/11 05:45:45;;;;;;;1.60;0.80;;;;;;;;;;5095701;28;20055;-82
2023/01/11 05:48:11;;;;;;;3.67;1.00;;;;;;;;;;5114043;28;20401;-82
2023/01/11 05:50:36;;;;;;;1.27;0.80;;;;;;;;;;5113776;28;20036;-81
2023/01/11 05:53:02;;;;;;;3.03;1.10;;;;;;;;;;5113827;28;20040;-81
2023/01/11 05:55:27;;;;;;;1.88;0.93;;;;;;;;;;5113212;28;20039;-83
2023/01/11 05:57:53;;;;;;;3.17;0.98;;;;;;;;;;5114864;28;20502;-82
2023/01/11 06:00:18;;;;;;;3.05;0.90;;;;;;;;;;5098688;28;20046;-83
2023/01/11 06:02:44;;;;;;;1.88;1.00;;;;;;;;;;5099250;28;20035;-84
2023/01/11 06:05:09;;;;;;;2.83;1.17;;;;;;;;;;5098542;28;20031;-82
2023/01/11 06:07:35;;;;;;;2.88;1.10;;;;;;;;;;5098909;28;20042;-82
2023/01/11 06:10:00;;;;;;;3.03;1.02;;;;;;;;;;5117150;28;20399;-82
2023/01/11 06:12:26;;;;;;;1.63;1.00;;;;;;;;;;5097807;28;20032;-82
2023/01/11 06:14:51;;;;;;;1.92;1.10;;;;;;;;;;5096256;28;20039;-82
2023/01/11 06:17:17;;;;;;;2.03;1.17;;;;;;;;;;5096636;28;20032;-82
2023/01/11 06:19:42;;;;;;;1.77;1.00;;;;;;;;;;5096784;28;20507;-83
2023/01/11 06:22:07;;;;;;;1.02;0.70;;;;;;;;;;5078527;28;20039;-83
2023/01/11 06:24:33;;;;;;;2.63;0.80;;;;;;;;;;5096710;28;20082;-83
2023/01/11 06:26:58;;;;;;;1.55;0.98;;;;;;;;;;5096035;28;20032;-83
2023/01/11 06:29:24;;;;;;;1.70;1.05;;;;;;;;;;5096180;28;20475;-83
2023/01/11 06:31:49;;;;;;;1.52;0.93;;;;;;;;;;5096390;28;20117;-82
2023/01/11 06:34:15;;;;;;;1.52;0.90;;;;;;;;;;5095963;28;20085;-82
2023/01/11 06:36:40;;;;;;;0.82;0.60;;;;;;;;;;5077922;28;20035;-82
2023/01/11 06:39:06;;;;;;;2.08;0.95;;;;;;;;;;5096209;28;20488;-82
2023/01/11 06:41:31;;;;;;;1.60;0.90;;;;;;;;;;5078122;28;20068;-82
2023/01/11 06:43:56;;;;;;;2.28;0.90;;;;;;;;;;5077413;28;20119;-82
2023/01/11 06:46:22;;;;;;;3.25;0.88;;;;;;;;;;5077897;28;20050;-82
2023/01/11 06:48:47;;;;;;;2.38;1.20;;;;;;;;;;5097110;28;20032;-83
2023/01/11 06:51:14;;;;;;;1.48;0.85;;;;;;;;;;5077655;28;20066;-82
2023/01/11 06:53:41;;;;;;;1.17;0.68;;;;;;;;;;5077459;28;20166;-82
2023/01/11 06:56:09;;;;;;;3.63;0.90;;;;;;;;;;5077666;28;20038;-83
2023/01/11 06:58:34;;;;;;;0.50;0.40;;;;;;;;;;5096204;28;20039;-82
2023/01/11 07:01:00;;;;;;;1.42;0.88;;;;;;;;;;5077468;28;20028;-82
2023/01/11 07:03:26;;;;;;;1.30;0.80;;;;;;;;;;5095664;28;20134;-82
2023/01/11 07:05:52;;;;;;;1.10;0.80;;;;;;;;;;5060018;28;20099;-82
2023/01/11 07:08:18;;;;;;;1.15;0.80;;;;;;;;;;5095625;28;20032;-82
2023/01/11 07:10:44;;;;;;;1.10;0.60;;;;;;;;;;5102346;28;20074;-82
2023/01/11 07:13:16;;;;;;;0.80;0.70;;;;;;;;;;5095980;28;20119;-82
2023/01/11 07:15:47;;;;;;;2.28;0.90;;;;;;;;;;5096214;28;20043;-82
2023/01/11 07:18:13;;;;;;;2.13;1.00;;;;;;;;;;5096305;28;20040;-82
2023/01/11 07:20:39;;;;;;;1.20;0.70;;;;;;;;;;5095200;28;20081;-82
2023/01/11 07:23:06;;;;;;;2.67;1.00;;;;;;;;;;5096566;28;20075;-81
2023/01/11 07:25:32;;;;;;;1.52;1.10;;;;;;;;;;5077518;28;20035;-82
2023/01/11 07:28:00;;;;;;;1.42;0.90;;;;;;;;;;5095790;28;20043;-82
2023/01/11 07:30:27;;;;;;;1.90;1.05;;;;;;;;;;5095368;28;20480;-82
2023/01/11 07:32:53;;;;;;;2.38;1.08;;;;;;;;;;5094891;28;20043;-82
2023/01/11 07:35:19;;;;;;;2.35;1.10;;;;;;;;;;5094868;28;20036;-81
2023/01/11 07:37:45;;;;;;;2.15;1.10;;;;;;;;;;5095485;28;20103;-81
2023/01/11 07:40:11;;;;;;;2.13;0.98;;;;;;;;;;5095334;28;20036;-81
2023/01/11 07:45:20;;;;;;;2.67;1.00;;;;;;;;;;5094922;28;20097;-82
2023/01/11 07:47:50;;;;;;;1.90;0.90;;;;;;;;;;5095212;28;20032;-81
2023/01/11 07:50:15;;;;;;;0.90;0.80;;;;;;;;;;5095309;28;20112;-82
2023/01/11 07:52:47;;;;;;;3.00;1.08;;;;;;;;;;5095547;28;20610;-82
2023/01/11 07:55:14;;;;;;;2.20;0.90;;;;;;;;;;5076784;28;20039;-82
2023/01/11 07:57:39;;;;;;;1.90;0.90;;;;;;;;;;5095171;28;20484;-81
2023/01/11 08:00:05;;;;;;;1.17;0.80;;;;;;;;;;5095378;28;20022;-84
2023/01/11 08:02:37;;;;;;;1.35;0.95;;;;;;;;;;5095256;28;20067;-82
2023/01/11 08:05:02;;;;;;;1.60;0.90;;;;;;;;;;5075757;28;20047;-83
2023/01/11 08:07:28;;;;;;;2.15;0.80;;;;;;;;;;5094651;28;20088;-83
2023/01/11 08:09:53;;;;;;;1.23;0.90;;;;;;;;;;5095003;28;20035;-83
2023/01/11 08:15:03;;;;;;;2.25;1.00;;;;;;;;;;5094641;28;20032;-82
2023/01/11 08:17:29;;;;;;;2.00;0.88;;;;;;;;;;5094488;28;20035;-82
2023/01/11 08:19:55;;;;;;;1.67;0.93;;;;;;;;;;5093997;28;20040;-83
2023/01/11 08:22:20;;;;;;;1.83;0.80;;;;;;;;;;5094826;28;20106;-82
2023/01/11 08:24:46;;;;;;;1.92;1.00;;;;;;;;;;5094274;28;20399;-82
2023/01/11 08:27:11;;;;;;;2.60;1.08;;;;;;;;;;5094477;28;20027;-82
2023/01/11 08:29:38;;;;;;;2.00;1.00;;;;;;;;;;5094932;28;20040;-82
2023/01/11 08:32:04;;;;;;;1.52;0.93;;;;;;;;;;5094640;28;20024;-82
2023/01/11 08:34:30;;;;;;;1.40;0.90;;;;;;;;;;5094483;28;20039;-82
2023/01/11 08:36:56;;;;;;;2.00;1.00;;;;;;;;;;5093902;28;20044;-82
2023/01/11 08:39:23;;;;;;;3.10;1.00;;;;;;;;;;5094479;28;20106;-83
2023/01/11 08:41:49;;;;;;;1.60;1.00;;;;;;;;;;5094832;28;20035;-83
2023/01/11 08:44:15;;;;;;;1.65;1.00;;;;;;;;;;5093584;28;20097;-83
2023/01/11 08:46:41;;;;;;;1.42;0.90;;;;;;;;;;5094195;28;20043;-82
2023/01/11 08:49:11;;;;;;;2.50;1.15;;;;;;;;;;5094509;28;20032;-82
2023/01/11 08:51:41;;;;;;;2.40;1.40;;;;;;;;;;5094626;28;20031;-82
2023/01/11 08:54:10;;;;;;;1.73;1.00;;;;;;;;;;5094859;28;20040;-85
2023/01/11 08:56:36;;;;;;;2.03;0.90;;;;;;;;;;5095088;28;20036;-86
2023/01/11 08:59:03;;;;;;;1.52;1.10;;;;;;;;;;5095719;28;20039;-83
2023/01/11 09:01:28;;;;;;;2.25;1.00;;;;;;;;;;5094948;28;20043;-81
2023/01/11 09:03:54;;;;;;;1.55;1.00;;;;;;;;;;5093783;28;20036;-82
2023/01/11 09:06:21;;;;;;;3.92;1.20;;;;;;;;;;5093219;28;20458;-82
2023/01/11 09:08:46;;;;;;;1.67;0.98;;;;;;;;;;5094280;28;20032;-82
2023/01/11 09:13:56;;;;;;;1.75;1.10;;;;;;;;;;5093997;28;20024;-82
2023/01/11 09:16:21;;;;;;;2.25;1.00;;;;;;;;;;5094481;28;20040;-80
2023/01/11 09:18:47;;;;;;;2.03;1.20;;;;;;;;;;5094342;28;20032;-86
2023/01/11 09:21:13;;;;;;;2.70;0.90;;;;;;;;;;5094565;28;20036;-83
2023/01/11 09:23:38;;;;;;;1.80;1.00;;;;;;;;;;5093949;28;20028;-83
2023/01/11 09:26:04;;;;;;;1.92;1.10;;;;;;;;;;5093470;28;20419;-82
2023/01/11 09:28:29;;;;;;;1.73;0.90;;;;;;;;;;5093630;28;20032;-82
2023/01/11 09:30:55;;;;;;;1.15;1.00;;;;;;;;;;5093812;28;20105;-84
2023/01/11 09:33:20;;;;;;;2.35;1.05;;;;;;;;;;5096966;28;20036;-83
2023/01/11 09:35:48;;;;;;;1.77;1.10;;;;;;;;;;5097455;28;20119;-83
2023/01/11 09:38:13;;;;;;;3.15;1.00;;;;;;;;;;5097557;28;20137;-84
2023/01/11 09:41:04;;;;;;;1.58;0.77;;;;;;;;;;5097689;28;20047;-85
2023/01/11 09:43:30;;;;;;;1.05;0.90;;;;;;;;;;5097739;28;20040;-84
2023/01/11 09:46:03;;;;;;;2.22;1.10;;;;;;;;;;5096833;28;20039;-85
2023/01/11 09:48:37;;;;;;;1.60;0.88;;;;;;;;;;5097063;28;20070;-84
2023/01/11 09:51:03;;;;;;;1.38;0.80;;;;;;;;;;5097828;28;20036;-83
2023/01/11 09:53:37;;;;;;;1.67;0.90;;;;;;;;;;5097273;28;20028;-85
2023/01/11 09:56:12;;;;;;;2.28;1.10;;;;;;;;;;5096920;28;20035;-83
2023/01/11 09:58:55;;;;;;;1.70;0.95;;;;;;;;;;5097587;28;20040;-83
2023/01/11 10:01:37;;;;;;;3.08;0.88;;;;;;;;;;5079441;28;20111;-83
2023/01/11 10:04:22;;;;;;;1.88;0.80;;;;;;;;;;5098453;28;20071;-84
2023/01/11 10:07:20;;;;;;;1.65;0.90;;;;;;;;;;5097476;28;20043;-83
2023/01/11 10:10:04;;;;;;;2.22;1.08;;;;;;;;;;5097574;28;20050;-84
2023/01/11 10:12:48;;;;;;;1.90;1.00;;;;;;;;;;5097995;28;20082;-84
2023/01/11 10:15:26;;;;;;;3.40;1.90;;;;;;;;;;5097463;28;20056;-83
2023/01/11 10:17:57;;;;;;;3.20;1.67;;;;;;;;;;5097347;28;20034;-83
2023/01/11 10:20:34;;;;;;;3.15;1.00;;;;;;;;;;5097480;28;20119;-82
2023/01/11 10:23:40;;;;;;;1.70;0.90;;;;;;;;;;5096840;28;20047;-83
2023/01/11 10:26:21;;;;;;;1.90;1.10;;;;;;;;;;5094683;28;20083;-83
2023/01/11 10:29:06;;;;;;;4.85;1.90;;;;;;;;;;5078657;28;20404;-83
2023/01/11 10:31:58;;;;;;;2.55;1.00;;;;;;;;;;5096726;28;20040;-83
2023/01/11 10:34:55;;;;;;;2.20;1.10;;;;;;;;;;5096870;28;20032;-83
2023/01/11 10:40:33;;;;;;;2.20;1.05;;;;;;;;;;5097327;28;20028;-83
2023/01/11 10:43:21;;;;;;;1.52;0.90;;;;;;;;;;5096236;28;20527;-83
2023/01/11 10:46:05;;;;;;;2.20;1.17;;;;;;;;;;5097162;28;20032;-83
2023/01/11 10:48:33;;;;;;;;;;;;;;;;;;5097427;28;20074;-81
2023/01/11 10:51:02;;;;;;;1.98;1.10;;;;;;;;;;5096834;28;19911;-82
2023/01/11 10:53:38;;;;;;;2.17;0.95;;;;;;;;;;5096865;28;20039;-82
2023/01/11 10:56:12;;;;;;;1.98;0.90;;;;;;;;;;5096411;28;20050;-83
2023/01/11 10:59:02;;;;;;;2.65;1.60;;;;;;;;;;5096232;28;20044;-83
2023/01/11 11:01:37;;;;;;;0.90;0.80;;;;;;;;;;5096326;28;20397;-83
2023/01/11 11:04:24;;;;;;;2.67;1.00;;;;;;;;;;5096117;28;20032;-83
2023/01/11 11:06:52;;;;;;;2.28;1.23;;;;;;;;;;5097103;28;20028;-83
2023/01/11 11:09:22;;;;;;;2.67;1.15;;;;;;;;;;5096418;28;20024;-84
2023/01/11 11:11:55;;;;;;;2.38;0.90;;;;;;;;;;5097363;28;20035;-83
2023/01/11 11:14:48;;;;;;;1.50;0.90;;;;;;;;;;5096156;28;20040;-83
2023/01/11 11:17:37;;;;;;;2.10;1.15;;;;;;;;;;5095739;28;20469;-85
2023/01/11 11:20:23;;;;;;;1.75;0.80;;;;;;;;;;5096640;28;20036;-84
2023/01/11 11:22:50;;;;;;;2.42;1.20;;;;;;;;;;5096235;28;20032;-84
2023/01/11 11:25:28;;;;;;;4.55;1.00;;;;;;;;;;5095965;28;20047;-84
2023/01/11 11:28:04;;;;;;;1.67;0.90;;;;;;;;;;5096546;28;20054;-83
2023/01/11 11:30:45;;;;;;;1.00;0.70;;;;;;;;;;5078557;28;20039;-83
2023/01/11 11:33:36;;;;;;;1.75;0.80;;;;;;;;;;5095307;28;20027;-83
2023/01/11 11:36:07;;;;;;;1.58;1.20;;;;;;;;;;5095539;28;20032;-82
2023/01/11 11:39:11;;;;;;;2.67;1.10;;;;;;;;;;5095330;28;20032;-82
2023/01/11 11:41:47;;;;;;;1.70;1.10;;;;;;;;;;5095536;28;20039;-81
2023/01/11 11:44:29;;;;;;;2.65;1.10;;;;;;;;;;5095165;28;20043;-82
2023/01/11 11:47:12;;;;;;;2.03;1.20;;;;;;;;;;5095973;28;20035;-82
2023/01/11 11:49:38;;;;;;;1.98;1.17;;;;;;;;;;5096002;28;20374;-83
2023/01/11 11:52:06;;;;;;;2.97;1.20;;;;;;;;;;5095060;28;20036;-83
2023/01/11 11:54:52;;;;;;;4.43;1.40;;;;;;;;;;5094686;28;20032;-82
2023/01/11 11:57:25;;;;;;;3.30;1.30;;;;;;;;;;5095470;28;20032;-83
2023/01/11 12:00:03;;;;;;;2.08;1.40;;;;;;;;;;5095943;28;20043;-84
2023/01/11 12:02:31;;;;;;;3.50;1.20;;;;;;;;;;5095888;28;20032;-83
2023/01/11 12:04:59;;;;;;;2.60;1.52;;;;;;;;;;5094605;28;20036;-83
2023/01/11 12:07:34;;;;;;;3.47;1.30;;;;;;;;;;5095214;28;20032;-83
2023/01/11 12:10:04;;;;;;;1.90;1.25;;;;;;;;;;5095081;28;20115;-83
2023/01/11 12:12:32;;;;;;;2.42;1.17;;;;;;;;;;5096520;28;20038;-83
2023/01/11 12:15:16;;;;;;;1.98;1.20;;;;;;;;;;5095534;28;20043;-84
2023/01/11 12:17:42;;;;;;;1.70;1.13;;;;;;;;;;5096997;28;20063;-86
2023/01/11 12:20:22;;;;;;;3.35;0.98;;;;;;;;;;5096793;28;20024;-82
2023/01/11 12:22:50;;;;;;;2.58;1.10;;;;;;;;;;5077808;28;20050;-83
2023/01/11 12:25:25;;;;;;;2.58;1.15;;;;;;;;;;5096077;28;20056;-84
2023/01/11 12:28:10;;;;;;;2.47;1.20;;;;;;;;;;5095940;28;20101;-84
2023/01/11 12:30:35;;;;;;;2.55;1.38;;;;;;;;;;5095968;28;20488;-84
2023/01/11 12:33:25;;;;;;;4.03;1.50;;;;;;;;;;5095732;28;20047;-84
2023/01/11 12:36:11;;;;;;;9.30;2.10;;;;;;;;;;5076924;28;20032;-84
2023/01/11 12:38:55;;;;;;;2.55;1.48;;;;;;;;;;5095591;28;20051;-84
2023/01/11 12:41:46;;;;;;;2.65;1.90;;;;;;;;;;5095597;28;20042;-84
2023/01/11 12:44:36;;;;;;;2.30;1.33;;;;;;;;;;5095723;28;20039;-84
2023/01/11 12:47:04;;;;;;;1.73;1.08;;;;;;;;;;5095840;28;20028;-84
2023/01/11 12:49:57;;;;;;;2.38;1.08;;;;;;;;;;5117986;22;20043;-86
2023/01/11 12:52:23;;;;;;;3.05;1.42;;;;;;;;;;5096294;28;20038;-85
2023/01/11 12:55:00;;;;;;;1.85;1.17;;;;;;;;;;5107290;28;20044;-86
2023/01/11 12:57:25;;;;;;;2.88;1.52;;;;;;;;;;5116205;28;20039;-85
2023/01/11 13:00:20;;;;;;;2.25;1.10;;;;;;;;;;5082145;28;20047;-86
2023/01/11 13:02:45;;;;;;;;;;;;;;;;;;5078252;28;20123;-83
2023/01/11 13:05:29;;;;;;;2.90;1.20;;;;;;;;;;5098044;28;20005;-86
2023/01/11 13:07:59;;;;;;;;;;;;;;;;;;5100141;28;20140;-83
2023/01/11 13:10:43;;;;;;;4.85;1.15;;;;;;;;;;5101030;28;20271;-87
2023/01/11 13:13:19;;;;;;;2.38;1.52;;;;;;;;;;5064790;28;20040;-85
2023/01/11 13:15:57;;;;;;;2.25;0.98;;;;;;;;;;5062571;28;20047;-88
2023/01/11 13:18:30;;;;;;;2.05;1.00;;;;;;;;;;5087355;28;20040;-88
2023/01/11 13:21:03;;;;;;;1.67;1.00;;;;;;;;;;5080140;28;20043;-85
2023/01/11 13:23:49;;;;;;;;;;;;;;;;;;5047699;28;20039;-82
2023/01/11 13:26:20;;;;;;;3.33;1.00;;;;;;;;;;5081826;28;19917;-85
2023/01/11 13:28:51;;;;;;;2.17;1.20;;;;;;;;;;5083411;28;20548;-85
2023/01/11 13:31:18;;;;;;;3.03;1.13;;;;;;;;;;5082890;28;20488;-84
2023/01/11 13:33:52;;;;;;;4.57;2.03;;;;;;;;;;5065583;28;20446;-85
2023/01/11 13:36:24;;;;;;;4.00;1.60;;;;;;;;;;5084184;28;20166;-84
2023/01/11 13:39:13;;;;;;;4.40;1.70;;;;;;;;;;5080602;28;20161;-86
2023/01/11 13:41:46;;;;;;;3.80;1.60;;;;;;;;;;5076976;28;20043;-88
2023/01/11 13:44:22;;;;;;;4.03;1.40;;;;;;;;;;5060152;28;20123;-86
2023/01/11 13:46:51;;;;;;;2.03;1.40;;;;;;;;;;5079019;28;20037;-86
2023/01/11 13:49:20;;;;;;;2.58;1.20;;;;;;;;;;5060639;28;20052;-86
2023/01/11 13:52:11;;;;;;;2.90;1.20;;;;;;;;;;5077792;28;20028;-86
2023/01/11 13:54:59;;;;;;;3.20;1.30;;;;;;;;;;5055734;28;20052;-86
2023/01/11 13:57:39;;;;;;;4.00;1.15;;;;;;;;;;5059386;28;20044;-86
2023/01/11 14:00:15;;;;;;;1.92;1.27;;;;;;;;;;5059429;28;20044;-83
2023/01/11 14:02:56;;;;;;;2.28;1.45;;;;;;;;;;5058921;28;20044;-85
2023/01/11 14:05:22;;;;;;;2.65;1.45;;;;;;;;;;5058051;28;20435;-86
2023/01/11 14:08:40;;;;;;;2.85;1.52;;;;;;;;;;5057157;28;20051;-84
2023/01/11 14:11:06;;;;;;;2.60;1.30;;;;;;;;;;5068844;28;20051;-85
2023/01/11 14:16:38;;;;;;;2.00;1.27;;;;;;;;;;5058016;28;20055;-85
2023/01/11 14:19:25;;;;;;;1.75;1.30;;;;;;;;;;5048792;28;20037;-87
2023/01/11 14:21:53;;;;;;;1.73;1.10;;;;;;;;;;5076002;28;20032;-86
2023/01/11 14:24:20;;;;;;;1.40;0.88;;;;;;;;;;5040545;28;20100;-85
2023/01/11 14:26:58;;;;;;;3.40;1.20;;;;;;;;;;5057548;28;20051;-86
2023/01/11 14:29:42;;;;;;;2.08;1.10;;;;;;;;;;5058551;28;20039;-88
2023/01/11 14:32:25;;;;;;;1.73;1.00;;;;;;;;;;5059173;28;20051;-86
2023/01/11 14:34:57;;;;;;;1.55;0.90;;;;;;;;;;5057748;28;20067;-85
2023/01/11 14:37:57;;;;;;;2.45;1.30;;;;;;;;;;5076315;28;20170;-86
2023/01/11 14:41:16;;;;;;;1.90;1.00;;;;;;;;;;5059254;28;20036;-86
2023/01/11 14:43:44;;;;;;;1.98;1.30;;;;;;;;;;4975029;28;20034;-84
2023/01/11 14:46:41;;;;;;;2.55;1.30;;;;;;;;;;4958920;28;20516;-85
2023/01/11 14:49:19;;;;;;;2.30;1.10;;;;;;;;;;5055345;28;20520;-84
2023/01/11 14:51:56;;;;;;;2.65;1.40;;;;;;;;;;5057868;28;20036;-85
2023/01/11 14:54:30;;;;;;;4.22;1.30;;;;;;;;;;5076446;28;20036;-83
2023/01/11 14:56:56;;;;;;;;;;;;;;;;;;5078235;28;20036;-82
2023/01/11 14:59:38;;;;;;;3.95;1.60;;;;;;;;;;5076833;28;19923;-86
2023/01/11 15:02:04;;;;;;;5.18;2.42;;;;;;;;;;5077169;28;20538;-85
2023/01/11 15:04:35;;;;;;;3.53;1.77;;;;;;;;;;5076247;28;20044;-86
2023/01/11 15:07:21;;;;;;;7.22;3.10;;;;;;;;;;5061945;28;20032;-85
2023/01/11 15:09:48;;;;;;;3.53;1.80;;;;;;;;;;5078790;28;20396;-85
2023/01/11 15:12:16;;;;;;;3.58;1.60;;;;;;;;;;5060890;28;20029;-86
2023/01/11 15:14:53;;;;;;;3.30;1.45;;;;;;;;;;5078528;28;20428;-84
2023/01/11 15:20:16;;;;;;;5.60;2.53;;;;;;;;;;5077828;28;20037;-85
2023/01/11 15:22:41;;;;;;;;;;;;;;;;;;5065743;28;20127;-83
2023/01/11 15:25:23;;;;;;;7.07;2.90;;;;;;;;;;5084770;28;19994;-84
2023/01/11 15:27:50;;;;;;;7.72;3.80;;;;;;;;;;5077836;28;20036;-85
2023/01/11 15:30:30;;;;;;;5.47;2.20;;;;;;;;;;5059592;28;20040;-85
2023/01/11 15:33:18;;;;;;;3.28;2.05;;;;;;;;;;5077759;28;20040;-85
2023/01/11 15:35:56;;;;;;;2.97;1.40;;;;;;;;;;5065585;28;20024;-84
2023/01/11 15:38:36;;;;;;;3.03;1.52;;;;;;;;;;5080506;28;20036;-83
2023/01/11 15:44:27;;;;;;;4.15;2.55;;;;;;;;;;5082339;28;20031;-84
2023/01/11 15:47:31;;;;;;;4.50;2.80;;;;;;;;;;5099654;28;20061;-83
2023/01/11 15:50:03;;;;;;;3.65;2.33;;;;;;;;;;5048943;28;20042;-86